Time;durP1;ratioP1;P1;durP2;ratioP2;P2;SDS_P1;SDS_P2;PMS_P1;PMS_P2;Temp;Humidity;BMP_temperature;BMP_pressure;BME280_temperature;BME280_humidity;BME280_pressure;Samples;Min_cycle;Max_cycle;Signal;HPM_P1;HPM_P2
2024/02/16 00:02:16;;;;;;;9.07;5.33;;;12.80;99.90;;;;;;5014050;28;20202;-61
2024/02/16 00:04:44;;;;;;;7.50;4.97;;;12.70;99.90;;;;;;5017700;28;20202;-61
2024/02/16 00:07:13;;;;;;;7.90;5.23;;;12.80;99.90;;;;;;5019535;28;20225;-61
2024/02/16 00:09:41;;;;;;;11.43;5.60;;;12.80;99.90;;;;;;5019322;28;20219;-61
2024/02/16 00:12:11;;;;;;;8.60;5.20;;;12.80;99.90;;;;;;5017571;28;20217;-61
2024/02/16 00:14:40;;;;;;;10.00;5.60;;;12.80;99.90;;;;;;5017043;28;20229;-61
2024/02/16 00:17:10;;;;;;;11.03;5.70;;;12.80;99.90;;;;;;5017064;28;20197;-61
2024/02/16 00:19:38;;;;;;;10.03;5.47;;;12.80;99.90;;;;;;5014785;28;20312;-61
2024/02/16 00:22:07;;;;;;;6.53;5.23;;;12.80;99.90;;;;;;5021705;28;20653;-61
2024/02/16 00:24:36;;;;;;;9.83;5.47;;;12.70;99.90;;;;;;5016496;28;20217;-61
2024/02/16 00:27:05;;;;;;;9.50;5.57;;;12.70;99.90;;;;;;5014216;28;20230;-61
2024/02/16 00:29:36;;;;;;;10.07;6.00;;;12.70;99.90;;;;;;5017653;28;20320;-61
2024/02/16 00:32:05;;;;;;;10.27;6.27;;;12.70;99.90;;;;;;5019557;28;20199;-61
2024/02/16 00:34:34;;;;;;;18.97;6.70;;;12.70;99.90;;;;;;5020794;28;20306;-61
2024/02/16 00:37:09;;;;;;;11.63;6.33;;;12.70;99.90;;;;;;5018225;28;20225;-61
2024/02/16 00:39:37;;;;;;;13.17;6.37;;;12.60;99.90;;;;;;5018814;28;20227;-61
2024/02/16 00:42:06;;;;;;;16.90;7.20;;;12.60;99.90;;;;;;5008844;28;20712;-61
2024/02/16 00:44:36;;;;;;;13.07;6.90;;;12.60;99.90;;;;;;4998856;28;20231;-61
2024/02/16 00:47:05;;;;;;;14.57;7.50;;;12.60;99.90;;;;;;5003820;28;20581;-61
2024/02/16 00:49:34;;;;;;;13.83;7.03;;;12.50;99.90;;;;;;4998443;28;20288;-61
2024/02/16 00:52:03;;;;;;;13.00;6.60;;;12.50;99.90;;;;;;4999610;28;20291;-61
2024/02/16 00:54:31;;;;;;;15.03;7.00;;;12.60;99.90;;;;;;4997705;28;20218;-61
2024/02/16 00:57:02;;;;;;;13.93;6.80;;;12.60;99.90;;;;;;4999785;28;20233;-61
2024/02/16 00:59:31;;;;;;;16.50;7.33;;;12.50;99.90;;;;;;4998301;28;20197;-61
2024/02/16 01:02:01;;;;;;;14.23;7.20;;;12.60;99.90;;;;;;4998272;28;20198;-61
2024/02/16 01:04:29;;;;;;;13.33;6.90;;;12.50;99.90;;;;;;4997002;28;20709;-61
2024/02/16 01:06:58;;;;;;;13.23;6.83;;;12.60;99.90;;;;;;4997705;28;20225;-61
2024/02/16 01:09:26;;;;;;;15.33;7.63;;;12.60;99.90;;;;;;4997260;28;20233;-62
2024/02/16 01:11:55;;;;;;;14.60;7.50;;;12.50;99.90;;;;;;5002113;28;20234;-61
2024/02/16 01:14:23;;;;;;;17.17;7.47;;;12.50;99.90;;;;;;4999518;28;20684;-61
2024/02/16 01:16:51;;;;;;;15.03;7.40;;;12.50;99.90;;;;;;5001472;28;20268;-61
2024/02/16 01:19:21;;;;;;;14.40;7.13;;;12.50;99.90;;;;;;4998348;28;20297;-61
2024/02/16 01:21:52;;;;;;;14.50;7.60;;;12.50;99.90;;;;;;4998915;28;20254;-62
2024/02/16 01:24:22;;;;;;;13.53;6.97;;;12.50;99.90;;;;;;4995906;28;20234;-61
2024/02/16 01:26:50;;;;;;;15.83;7.87;;;12.60;99.90;;;;;;4995513;28;20269;-61
2024/02/16 01:29:19;;;;;;;16.80;7.47;;;12.60;99.90;;;;;;5004003;28;20260;-61
2024/02/16 01:31:47;;;;;;;18.17;7.20;;;12.60;99.90;;;;;;4993303;28;20214;-61
2024/02/16 01:34:15;;;;;;;14.43;7.43;;;12.60;99.90;;;;;;4998818;28;20242;-61
2024/02/16 01:36:45;;;;;;;14.37;7.70;;;12.70;99.90;;;;;;4994942;28;20218;-61
2024/02/16 01:39:13;;;;;;;14.13;7.27;;;12.70;99.90;;;;;;4997155;28;20229;-61
2024/02/16 01:41:41;;;;;;;13.27;7.13;;;12.70;99.90;;;;;;4996759;28;20234;-61
2024/02/16 01:44:10;;;;;;;14.53;7.40;;;12.70;99.90;;;;;;4996447;28;20577;-61
2024/02/16 01:46:38;;;;;;;13.33;6.93;;;12.70;99.90;;;;;;4998336;28;20219;-61
2024/02/16 01:49:07;;;;;;;15.57;7.27;;;12.70;99.90;;;;;;4998404;28;20226;-61
2024/02/16 01:51:36;;;;;;;11.97;6.73;;;12.70;99.90;;;;;;5000860;28;20222;-61
2024/02/16 01:54:07;;;;;;;14.83;6.97;;;12.70;99.90;;;;;;5005039;28;20771;-61
2024/02/16 01:56:35;;;;;;;10.13;6.20;;;12.80;99.90;;;;;;5003964;28;20250;-61
2024/02/16 01:59:03;;;;;;;12.07;6.30;;;12.70;99.90;;;;;;5001146;28;20198;-61
2024/02/16 02:01:32;;;;;;;12.77;6.00;;;12.80;99.90;;;;;;4996864;28;20234;-61
2024/02/16 02:04:01;;;;;;;14.57;6.60;;;12.70;99.90;;;;;;5003629;28;20681;-61
2024/02/16 02:06:29;;;;;;;11.37;6.27;;;12.80;99.90;;;;;;5003071;28;20625;-61
2024/02/16 02:08:58;;;;;;;8.47;5.97;;;12.80;99.90;;;;;;5005209;28;20226;-61
2024/02/16 02:11:27;;;;;;;9.77;6.10;;;12.80;99.90;;;;;;5001137;28;20222;-61
2024/02/16 02:13:56;;;;;;;10.10;6.03;;;12.80;99.90;;;;;;5005380;28;20205;-61
2024/02/16 02:16:26;;;;;;;11.10;5.53;;;12.80;99.90;;;;;;5006671;28;20276;-61
2024/02/16 02:18:54;;;;;;;9.00;5.67;;;12.70;99.90;;;;;;5002770;28;20227;-61
2024/02/16 02:21:23;;;;;;;7.20;5.40;;;12.80;99.90;;;;;;4998124;28;20666;-62
2024/02/16 02:23:53;;;;;;;9.07;5.07;;;12.80;99.90;;;;;;5000757;28;20233;-61
2024/02/16 02:26:21;;;;;;;10.00;5.23;;;12.80;99.90;;;;;;5000004;28;20253;-60
2024/02/16 02:28:50;;;;;;;6.43;4.37;;;12.80;99.90;;;;;;5001616;28;20205;-61
2024/02/16 02:31:19;;;;;;;7.20;4.33;;;12.90;99.90;;;;;;4998116;28;20278;-61
2024/02/16 02:33:47;;;;;;;5.10;3.97;;;12.90;99.90;;;;;;5001940;28;20230;-61
2024/02/16 02:36:16;;;;;;;4.50;3.80;;;13.00;99.90;;;;;;4999108;28;20228;-60
2024/02/16 02:38:44;;;;;;;5.30;3.87;;;13.00;99.90;;;;;;5000000;28;20226;-61
2024/02/16 02:41:16;;;;;;;4.30;3.90;;;13.00;99.90;;;;;;5000190;28;20256;-61
2024/02/16 02:43:44;;;;;;;5.63;3.97;;;13.00;99.90;;;;;;5002802;28;20215;-61
2024/02/16 02:46:15;;;;;;;5.30;3.50;;;13.00;99.90;;;;;;5004142;28;20308;-61
2024/02/16 02:48:44;;;;;;;4.17;3.37;;;13.10;99.90;;;;;;4996742;28;20839;-61
2024/02/16 02:51:19;;;;;;;4.30;3.53;;;13.10;99.90;;;;;;4999740;28;20233;-61
2024/02/16 02:53:47;;;;;;;3.73;3.40;;;13.20;99.90;;;;;;4999717;28;20233;-61
2024/02/16 02:56:18;;;;;;;4.00;3.70;;;13.20;99.90;;;;;;5000377;28;20209;-60
2024/02/16 02:58:46;;;;;;;5.20;3.77;;;13.20;99.90;;;;;;4997528;28;20277;-61
2024/02/16 03:01:15;;;;;;;4.83;3.53;;;13.20;99.90;;;;;;5001675;28;20226;-61
2024/02/16 03:03:43;;;;;;;6.33;3.60;;;13.20;99.90;;;;;;5001354;28;20217;-61
2024/02/16 03:06:12;;;;;;;4.53;3.53;;;13.10;99.90;;;;;;5001496;28;20542;-61
2024/02/16 03:08:40;;;;;;;4.40;3.80;;;13.10;99.90;;;;;;5001788;28;20252;-61
2024/02/16 03:11:08;;;;;;;3.87;3.57;;;13.10;99.90;;;;;;4996106;28;20654;-61
2024/02/16 03:13:38;;;;;;;5.47;3.60;;;13.10;99.90;;;;;;4996724;28;20234;-61
2024/02/16 03:16:08;;;;;;;5.97;4.03;;;13.10;99.90;;;;;;5000252;28;20305;-61
2024/02/16 03:18:36;;;;;;;5.93;3.57;;;13.10;99.90;;;;;;4996589;28;20221;-61
2024/02/16 03:21:07;;;;;;;4.73;3.80;;;13.20;99.90;;;;;;5001013;28;20218;-61
2024/02/16 03:23:35;;;;;;;3.90;3.40;;;13.20;99.90;;;;;;4997307;28;20697;-61
2024/02/16 03:26:04;;;;;;;3.97;3.67;;;13.20;99.90;;;;;;4997324;28;20197;-61
2024/02/16 03:28:32;;;;;;;3.93;3.50;;;13.20;99.90;;;;;;5000465;28;20558;-61
2024/02/16 03:31:04;;;;;;;4.00;3.70;;;13.20;99.90;;;;;;4994724;28;20231;-61
2024/02/16 03:33:32;;;;;;;4.27;3.83;;;13.20;99.90;;;;;;5003444;28;20781;-61
2024/02/16 03:36:01;;;;;;;4.80;3.87;;;13.20;99.90;;;;;;5003135;28;20600;-61
2024/02/16 03:38:29;;;;;;;4.03;3.63;;;13.20;99.90;;;;;;4998975;28;20263;-61
2024/02/16 03:40:57;;;;;;;6.00;3.73;;;13.20;99.90;;;;;;5000626;28;20717;-61
2024/02/16 03:43:26;;;;;;;9.17;3.80;;;13.10;99.90;;;;;;5000619;28;20563;-61
2024/02/16 03:45:54;;;;;;;9.33;3.97;;;13.20;99.90;;;;;;4996311;28;20605;-61
2024/02/16 03:48:23;;;;;;;3.87;3.57;;;13.20;99.90;;;;;;4997919;28;20229;-61
2024/02/16 03:50:52;;;;;;;3.67;3.37;;;13.20;99.90;;;;;;4995795;28;20223;-61
2024/02/16 03:53:20;;;;;;;5.87;3.87;;;13.20;99.90;;;;;;4997069;28;20206;-61
2024/02/16 03:55:48;;;;;;;4.30;3.77;;;13.30;99.90;;;;;;4998013;28;20183;-61
2024/02/16 03:58:17;;;;;;;3.60;3.30;;;13.30;99.90;;;;;;4998903;28;20235;-61
2024/02/16 04:00:45;;;;;;;7.07;3.80;;;13.20;99.90;;;;;;4996640;28;20217;-61
2024/02/16 04:03:13;;;;;;;5.90;3.87;;;13.30;99.90;;;;;;4999502;28;20274;-62
2024/02/16 04:05:43;;;;;;;4.90;4.27;;;13.20;99.90;;;;;;4997753;28;20230;-61
2024/02/16 04:08:11;;;;;;;5.60;4.27;;;13.20;99.90;;;;;;4993315;28;20214;-61
2024/02/16 04:10:39;;;;;;;5.30;3.93;;;13.20;99.90;;;;;;5014685;28;20222;-61
2024/02/16 04:13:07;;;;;;;5.40;3.60;;;13.30;99.90;;;;;;5016894;28;20250;-61
2024/02/16 04:15:36;;;;;;;6.13;3.70;;;13.20;99.90;;;;;;5018011;28;20225;-61
2024/02/16 04:18:05;;;;;;;7.57;4.20;;;13.20;99.90;;;;;;5021127;28;20234;-61
2024/02/16 04:20:33;;;;;;;4.30;3.70;;;13.20;99.90;;;;;;5018491;28;20555;-61
2024/02/16 04:23:03;;;;;;;4.40;4.03;;;13.20;99.90;;;;;;5015046;28;20215;-61
2024/02/16 04:25:31;;;;;;;4.47;3.87;;;13.30;99.90;;;;;;5013354;28;20236;-61
2024/02/16 04:27:59;;;;;;;5.57;4.17;;;13.30;99.90;;;;;;5021435;28;20229;-61
2024/02/16 04:30:28;;;;;;;4.10;3.80;;;13.30;99.90;;;;;;5014238;28;20233;-60
2024/02/16 04:32:56;;;;;;;6.40;3.77;;;13.30;99.90;;;;;;5015611;28;20230;-61
2024/02/16 04:35:24;;;;;;;5.40;3.50;;;13.30;99.90;;;;;;5017300;28;20248;-61
2024/02/16 04:37:53;;;;;;;6.27;4.10;;;13.20;99.90;;;;;;5018536;28;20197;-61
2024/02/16 04:40:22;;;;;;;7.30;4.03;;;13.20;99.90;;;;;;5020914;28;20596;-61
2024/02/16 04:42:50;;;;;;;6.60;4.50;;;13.10;99.90;;;;;;5017296;28;20922;-61
2024/02/16 04:45:20;;;;;;;7.60;3.73;;;13.10;99.90;;;;;;5018097;28;20721;-61
2024/02/16 04:47:48;;;;;;;4.70;4.17;;;13.10;99.90;;;;;;5017864;28;20587;-61
2024/02/16 04:50:16;;;;;;;7.20;4.13;;;13.10;99.90;;;;;;5016865;28;20678;-61
2024/02/16 04:52:44;;;;;;;4.63;4.20;;;13.10;99.90;;;;;;5017899;28;20629;-61
2024/02/16 04:55:13;;;;;;;6.30;4.00;;;13.20;99.90;;;;;;5017979;28;20229;-61
2024/02/16 04:57:42;;;;;;;6.57;3.87;;;13.10;99.90;;;;;;5017819;28;20329;-61
2024/02/16 05:00:12;;;;;;;4.50;4.10;;;13.20;99.90;;;;;;5011639;28;20222;-61
2024/02/16 05:02:40;;;;;;;4.40;4.00;;;13.20;99.90;;;;;;5017355;28;20337;-61
2024/02/16 05:05:08;;;;;;;7.03;4.40;;;13.20;99.90;;;;;;5019113;28;20218;-61
2024/02/16 05:07:37;;;;;;;6.00;4.47;;;13.10;99.90;;;;;;5019267;28;20222;-61
2024/02/16 05:10:10;;;;;;;5.53;4.00;;;13.10;99.90;;;;;;5017381;28;20230;-61
2024/02/16 05:12:38;;;;;;;8.40;4.13;;;13.10;99.90;;;;;;5014844;28;20221;-61
2024/02/16 05:15:09;;;;;;;5.50;3.77;;;13.10;99.90;;;;;;5016018;28;20237;-61
2024/02/16 05:17:37;;;;;;;10.23;4.03;;;13.10;99.90;;;;;;5018401;28;20222;-61
2024/02/16 05:20:14;;;;;;;5.70;4.20;;;13.10;99.90;;;;;;5019034;28;20197;-61
2024/02/16 05:22:45;;;;;;;7.30;4.07;;;13.10;99.90;;;;;;4995843;28;20219;-61
2024/02/16 05:25:14;;;;;;;4.67;4.27;;;13.10;99.90;;;;;;4995902;28;20234;-61
2024/02/16 05:27:42;;;;;;;4.30;3.90;;;13.10;99.90;;;;;;5000555;28;20222;-61
2024/02/16 05:30:15;;;;;;;4.30;3.73;;;13.00;99.90;;;;;;4997601;28;20696;-61
2024/02/16 05:32:44;;;;;;;4.47;3.87;;;13.00;99.90;;;;;;5003592;28;20624;-61
2024/02/16 05:35:16;;;;;;;4.40;4.00;;;12.90;99.90;;;;;;5001358;28;20195;-61
2024/02/16 05:37:47;;;;;;;4.33;3.80;;;12.90;99.90;;;;;;4999478;28;20243;-61
2024/02/16 05:40:24;;;;;;;4.87;4.33;;;12.90;99.90;;;;;;5000516;28;20214;-61
2024/02/16 05:42:53;;;;;;;5.13;3.90;;;12.90;99.90;;;;;;5001618;28;20224;-61
2024/02/16 05:45:23;;;;;;;6.47;4.40;;;12.90;99.90;;;;;;5003929;28;20209;-61
2024/02/16 05:47:52;;;;;;;8.57;4.50;;;12.90;99.90;;;;;;5004746;28;20226;-61
2024/02/16 05:50:22;;;;;;;6.23;4.00;;;13.00;99.90;;;;;;5001189;28;20194;-60
2024/02/16 05:52:51;;;;;;;6.10;4.40;;;13.00;99.90;;;;;;5002828;28;20293;-60
2024/02/16 05:55:20;;;;;;;7.20;3.93;;;13.00;99.90;;;;;;5003931;28;20222;-61
2024/02/16 05:57:48;;;;;;;4.33;3.80;;;13.00;99.90;;;;;;5002297;28;20787;-60
2024/02/16 06:00:21;;;;;;;5.40;4.27;;;13.00;99.90;;;;;;4998333;28;20226;-60
2024/02/16 06:02:51;;;;;;;5.40;4.40;;;13.00;99.90;;;;;;4998775;28;20304;-60
2024/02/16 06:05:21;;;;;;;4.60;3.70;;;13.10;99.90;;;;;;4998993;28;20245;-61
2024/02/16 06:07:49;;;;;;;6.87;4.10;;;13.10;99.90;;;;;;5000778;28;20328;-60
2024/02/16 06:10:18;;;;;;;5.63;4.23;;;13.10;99.90;;;;;;5001338;28;20227;-60
2024/02/16 06:12:46;;;;;;;6.00;3.97;;;13.20;99.90;;;;;;5001337;28;20228;-60
2024/02/16 06:15:14;;;;;;;4.33;3.93;;;13.20;99.90;;;;;;5002348;28;20222;-61
2024/02/16 06:17:43;;;;;;;13.77;4.30;;;13.20;99.90;;;;;;4996450;28;20328;-61
2024/02/16 06:20:13;;;;;;;6.33;4.20;;;13.20;99.90;;;;;;5000822;28;20620;-61
2024/02/16 06:22:45;;;;;;;4.40;3.83;;;13.30;99.90;;;;;;5000134;28;20225;-60
2024/02/16 06:25:13;;;;;;;4.30;3.90;;;13.40;99.90;;;;;;5003932;28;20223;-60
2024/02/16 06:27:41;;;;;;;4.60;4.17;;;13.30;99.90;;;;;;4998005;28;20324;-60
2024/02/16 06:30:12;;;;;;;7.37;4.20;;;13.40;99.90;;;;;;5005550;28;20230;-60
2024/02/16 06:32:41;;;;;;;4.63;4.20;;;13.40;99.90;;;;;;5022564;28;20229;-60
2024/02/16 06:35:12;;;;;;;9.43;4.00;;;13.40;99.90;;;;;;5020304;28;20680;-61
2024/02/16 06:37:40;;;;;;;4.83;4.37;;;13.40;99.90;;;;;;5023000;28;20287;-60
2024/02/16 06:40:10;;;;;;;8.30;4.57;;;13.40;99.90;;;;;;5011927;28;20226;-61
2024/02/16 06:42:39;;;;;;;4.27;3.80;;;13.40;99.90;;;;;;4999705;28;20219;-61
2024/02/16 06:45:08;;;;;;;7.87;4.77;;;13.30;99.90;;;;;;4999984;28;20249;-61
2024/02/16 06:47:36;;;;;;;6.60;4.27;;;13.20;99.90;;;;;;5002334;28;20231;-61
2024/02/16 06:50:06;;;;;;;7.27;4.60;;;13.30;99.90;;;;;;4998848;28;20216;-61
2024/02/16 06:52:36;;;;;;;5.30;4.40;;;13.20;99.90;;;;;;4998676;28;20611;-61
2024/02/16 06:55:05;;;;;;;6.97;4.37;;;13.20;99.90;;;;;;4996695;28;20223;-61
2024/02/16 06:57:33;;;;;;;8.07;4.57;;;13.20;99.90;;;;;;5000795;28;20233;-61
2024/02/16 07:00:03;;;;;;;5.80;4.23;;;13.10;99.90;;;;;;5000883;28;20229;-61
2024/02/16 07:02:32;;;;;;;7.73;4.40;;;13.20;99.90;;;;;;5004421;28;20198;-61
2024/02/16 07:05:00;;;;;;;4.57;4.17;;;13.10;99.90;;;;;;5000267;28;20242;-61
2024/02/16 07:07:28;;;;;;;5.17;4.27;;;13.10;99.90;;;;;;4995844;28;20584;-61
2024/02/16 07:09:58;;;;;;;5.27;4.63;;;13.10;99.90;;;;;;5000272;28;20234;-61
2024/02/16 07:12:26;;;;;;;4.63;4.23;;;13.10;99.90;;;;;;5000390;28;20309;-61
2024/02/16 07:14:54;;;;;;;8.70;4.67;;;13.00;99.90;;;;;;4999088;28;20222;-61
2024/02/16 07:17:23;;;;;;;5.70;4.50;;;13.00;99.90;;;;;;4996005;28;20242;-60
2024/02/16 07:19:51;;;;;;;8.30;4.73;;;13.00;99.90;;;;;;5003276;28;20621;-61
2024/02/16 07:22:19;;;;;;;7.73;4.07;;;13.00;99.90;;;;;;5000293;28;20308;-61
2024/02/16 07:24:48;;;;;;;8.87;4.67;;;13.00;99.90;;;;;;5001890;28;20228;-61
2024/02/16 07:27:18;;;;;;;6.97;4.57;;;13.00;99.90;;;;;;4997194;28;20238;-61
2024/02/16 07:29:46;;;;;;;6.60;4.50;;;13.00;99.90;;;;;;4999072;28;20227;-61
2024/02/16 07:32:14;;;;;;;5.60;4.40;;;13.00;99.90;;;;;;4998298;28;20198;-60
2024/02/16 07:34:47;;;;;;;8.40;4.47;;;13.00;99.90;;;;;;4999172;28;20658;-60
2024/02/16 07:37:16;;;;;;;4.90;4.40;;;12.90;99.90;;;;;;4999340;28;20229;-60
2024/02/16 07:39:45;;;;;;;11.43;4.60;;;13.00;99.90;;;;;;4999601;28;20264;-61
2024/02/16 07:42:13;;;;;;;6.77;4.60;;;13.10;99.90;;;;;;4999908;28;20229;-60
2024/02/16 07:44:43;;;;;;;5.83;4.67;;;13.10;99.90;;;;;;4996540;28;20242;-61
2024/02/16 07:47:12;;;;;;;6.47;4.60;;;13.10;99.90;;;;;;4996504;28;20224;-61
2024/02/16 07:49:40;;;;;;;6.20;4.57;;;13.10;99.90;;;;;;5018905;28;20611;-61
2024/02/16 07:52:09;;;;;;;11.63;4.93;;;13.10;99.90;;;;;;5005863;28;20221;-61
2024/02/16 07:54:37;;;;;;;7.80;4.50;;;13.20;99.90;;;;;;4998498;28;20639;-61
2024/02/16 07:57:05;;;;;;;7.30;4.97;;;13.10;99.90;;;;;;4995801;28;20221;-61
2024/02/16 07:59:34;;;;;;;7.67;4.40;;;13.10;99.90;;;;;;5000112;28;20588;-61
2024/02/16 08:02:04;;;;;;;11.57;4.40;;;13.20;99.90;;;;;;4998225;28;20632;-60
2024/02/16 08:04:32;;;;;;;6.60;4.37;;;13.20;99.90;;;;;;4997243;28;20701;-60
2024/02/16 08:07:01;;;;;;;8.57;4.73;;;13.20;99.90;;;;;;4996954;28;20242;-61
2024/02/16 08:09:29;;;;;;;6.73;4.00;;;13.30;99.90;;;;;;4995308;28;20321;-60
2024/02/16 08:11:58;;;;;;;7.33;4.97;;;13.20;99.90;;;;;;5002850;28;20309;-61
2024/02/16 08:14:26;;;;;;;9.33;4.80;;;13.20;99.90;;;;;;4994351;28;20277;-61
2024/02/16 08:16:54;;;;;;;9.23;4.80;;;13.20;99.90;;;;;;4997052;28;20602;-61
2024/02/16 08:19:37;;;;;;;6.17;4.60;;;13.20;99.90;;;;;;4997699;28;20302;-61
2024/02/16 08:22:08;;;;;;;5.67;4.77;;;13.20;99.90;;;;;;5001375;28;20226;-60
2024/02/16 08:24:37;;;;;;;6.47;5.20;;;13.20;99.90;;;;;;4999906;28;20225;-61
2024/02/16 08:27:06;;;;;;;7.27;4.80;;;13.20;99.90;;;;;;4996660;28;20735;-60
2024/02/16 08:29:34;;;;;;;5.13;4.73;;;13.10;99.90;;;;;;4994833;28;20351;-61
2024/02/16 08:32:03;;;;;;;9.03;4.70;;;13.10;99.90;;;;;;4999970;28;20305;-61
2024/02/16 08:34:32;;;;;;;4.90;4.40;;;13.20;99.90;;;;;;4995336;28;20226;-61
2024/02/16 08:37:02;;;;;;;8.30;4.67;;;13.20;99.90;;;;;;4998508;28;20226;-60
2024/02/16 08:39:31;;;;;;;6.73;4.80;;;13.20;99.90;;;;;;5004358;28;20239;-61
2024/02/16 08:41:59;;;;;;;10.97;5.17;;;13.20;99.90;;;;;;4997111;28;20640;-61
2024/02/16 08:44:28;;;;;;;7.10;4.53;;;13.20;99.90;;;;;;5000110;28;20198;-61
2024/02/16 08:46:56;;;;;;;7.47;5.00;;;13.20;99.90;;;;;;4998528;28;20208;-61
2024/02/16 08:49:24;;;;;;;10.07;5.00;;;13.20;99.90;;;;;;4996197;28;20237;-61
2024/02/16 08:51:53;;;;;;;8.70;5.03;;;13.20;99.90;;;;;;4997090;28;20238;-61
2024/02/16 08:54:23;;;;;;;6.33;5.10;;;13.20;99.90;;;;;;4999075;28;20230;-61
2024/02/16 08:56:51;;;;;;;8.33;5.10;;;13.30;99.90;;;;;;4998906;28;20226;-61
2024/02/16 08:59:19;;;;;;;5.43;4.90;;;13.30;99.90;;;;;;5001331;28;20218;-61
2024/02/16 09:01:47;;;;;;;8.97;4.97;;;13.20;99.90;;;;;;5000928;28;20192;-61
2024/02/16 09:04:16;;;;;;;10.80;5.10;;;13.20;99.90;;;;;;5002075;28;20225;-61
2024/02/16 09:06:45;;;;;;;8.00;4.80;;;13.20;99.90;;;;;;5000470;28;20286;-61
2024/02/16 09:09:15;;;;;;;12.70;5.20;;;13.20;99.90;;;;;;4999126;28;20249;-61
2024/02/16 09:11:44;;;;;;;5.97;4.50;;;13.30;99.90;;;;;;5003873;28;20291;-61
2024/02/16 09:14:13;;;;;;;10.53;5.00;;;13.30;99.90;;;;;;5006388;28;20205;-62
2024/02/16 09:16:41;;;;;;;9.60;5.07;;;13.30;99.90;;;;;;5022621;28;20214;-62
2024/02/16 09:19:10;;;;;;;5.83;4.47;;;13.30;99.90;;;;;;5020106;28;20225;-61
2024/02/16 09:21:39;;;;;;;10.97;5.40;;;13.40;99.90;;;;;;5022205;28;20259;-61
2024/02/16 09:24:10;;;;;;;8.97;5.10;;;13.40;99.90;;;;;;5019167;28;20240;-61
2024/02/16 09:26:38;;;;;;;8.23;4.87;;;13.50;99.90;;;;;;5020326;28;20226;-61
2024/02/16 09:29:11;;;;;;;7.90;5.13;;;13.50;99.90;;;;;;5020256;28;20214;-62
2024/02/16 09:31:39;;;;;;;7.90;5.30;;;13.50;99.90;;;;;;5016110;28;20233;-61
2024/02/16 09:34:08;;;;;;;8.30;5.93;;;13.50;99.90;;;;;;5018151;28;20313;-61
2024/02/16 09:36:37;;;;;;;11.40;5.40;;;13.50;99.90;;;;;;5016863;28;20673;-60
2024/02/16 09:39:05;;;;;;;9.23;5.30;;;13.40;99.90;;;;;;5015476;28;20230;-61
2024/02/16 09:41:36;;;;;;;10.93;5.17;;;13.40;99.90;;;;;;5020280;28;20186;-61
2024/02/16 09:44:06;;;;;;;9.67;5.50;;;13.40;99.90;;;;;;5019732;28;20646;-61
2024/02/16 09:46:36;;;;;;;9.77;5.57;;;13.50;99.90;;;;;;5023503;28;20222;-61
2024/02/16 09:49:04;;;;;;;10.37;6.03;;;13.50;99.90;;;;;;5018892;28;20219;-60
2024/02/16 09:51:37;;;;;;;14.47;6.33;;;13.50;99.90;;;;;;5022732;28;20337;-60
2024/02/16 09:54:07;;;;;;;11.07;6.07;;;13.50;99.90;;;;;;5021554;28;20238;-60
2024/02/16 09:56:35;;;;;;;12.87;6.80;;;13.50;99.90;;;;;;5022967;28;20244;-60
2024/02/16 09:59:04;;;;;;;10.27;7.10;;;13.40;99.90;;;;;;5022927;28;20218;-61
2024/02/16 10:01:37;;;;;;;14.33;7.23;;;13.30;99.90;;;;;;5022653;28;20224;-60
2024/02/16 10:04:09;;;;;;;13.53;7.37;;;13.30;99.90;;;;;;5022977;28;20647;-61
2024/02/16 10:06:47;;;;;;;13.87;7.20;;;13.20;99.90;;;;;;5021520;28;20230;-61
2024/02/16 10:09:28;;;;;;;17.03;7.50;;;13.20;99.90;;;;;;5023131;28;20332;-62
2024/02/16 10:11:57;;;;;;;13.63;7.43;;;13.20;99.90;;;;;;5021896;28;20316;-61
2024/02/16 10:14:26;;;;;;;19.70;7.70;;;13.20;99.90;;;;;;5020242;28;20191;-61
2024/02/16 10:17:02;;;;;;;12.90;7.43;;;13.20;99.90;;;;;;5022089;28;20194;-61
2024/02/16 10:19:39;;;;;;;12.47;7.53;;;13.20;99.90;;;;;;5017533;28;20215;-62
2024/02/16 10:22:10;;;;;;;19.93;8.00;;;13.20;99.90;;;;;;5017178;28;20222;-62
2024/02/16 10:24:39;;;;;;;15.70;7.73;;;13.20;99.90;;;;;;5019192;28;20221;-61
2024/02/16 10:27:14;;;;;;;18.43;8.10;;;13.20;99.90;;;;;;5017461;28;20280;-61
2024/02/16 10:29:45;;;;;;;15.00;7.33;;;13.20;99.90;;;;;;5019964;28;20599;-61
2024/02/16 10:32:19;;;;;;;17.13;7.90;;;13.10;99.90;;;;;;5020313;28;20198;-61
2024/02/16 10:34:48;;;;;;;14.23;8.17;;;13.10;99.90;;;;;;4998102;28;20219;-61
2024/02/16 10:37:17;;;;;;;20.27;8.10;;;13.10;99.90;;;;;;4995589;28;20226;-61
2024/02/16 10:39:47;;;;;;;16.13;8.17;;;13.00;99.90;;;;;;5004380;28;20250;-61
2024/02/16 10:42:19;;;;;;;16.20;8.57;;;13.00;99.90;;;;;;5001482;28;20222;-61
2024/02/16 10:44:48;;;;;;;14.70;8.37;;;12.90;99.90;;;;;;5006749;28;20234;-61
2024/02/16 10:47:18;;;;;;;16.33;9.40;;;12.90;99.90;;;;;;5000489;28;20642;-60
2024/02/16 10:49:46;;;;;;;16.30;8.63;;;12.80;99.90;;;;;;5000594;28;20304;-61
2024/02/16 10:52:16;;;;;;;18.33;8.50;;;12.90;99.90;;;;;;5001014;28;20231;-61
2024/02/16 10:54:45;;;;;;;16.40;8.70;;;12.80;99.90;;;;;;4996841;28;20313;-61
2024/02/16 10:57:13;;;;;;;15.93;9.20;;;12.80;99.90;;;;;;5000569;28;20223;-60
2024/02/16 10:59:47;;;;;;;15.20;9.20;;;12.80;99.90;;;;;;4999545;28;20226;-60
2024/02/16 11:02:16;;;;;;;13.83;9.67;;;12.70;99.90;;;;;;5002360;28;20196;-61
2024/02/16 11:04:49;;;;;;;15.07;10.00;;;12.70;99.90;;;;;;4994658;28;20227;-61
2024/02/16 11:07:18;;;;;;;17.00;10.20;;;12.70;99.90;;;;;;4998820;28;20692;-61
2024/02/16 11:09:48;;;;;;;19.67;9.80;;;12.70;99.90;;;;;;4999789;28;20316;-61
2024/02/16 11:12:17;;;;;;;13.73;9.23;;;12.70;99.90;;;;;;5004147;28;20231;-61
2024/02/16 11:14:47;;;;;;;15.07;9.27;;;12.70;99.90;;;;;;5001283;28;20226;-61
2024/02/16 11:17:20;;;;;;;14.60;9.80;;;12.60;99.90;;;;;;5000745;28;20203;-60
2024/02/16 11:19:50;;;;;;;12.37;9.43;;;12.60;99.90;;;;;;5004798;28;20550;-61
2024/02/16 11:22:20;;;;;;;14.20;9.93;;;12.60;99.90;;;;;;5000084;28;20223;-61
2024/02/16 11:24:50;;;;;;;11.73;10.13;;;12.60;99.90;;;;;;4997999;28;20311;-62
2024/02/16 11:27:21;;;;;;;14.40;10.90;;;12.60;99.90;;;;;;4993505;28;20225;-61
2024/02/16 11:29:50;;;;;;;16.63;11.30;;;12.50;99.90;;;;;;5002194;28;20624;-61
2024/02/16 11:32:20;;;;;;;20.27;11.83;;;12.50;99.90;;;;;;4998540;28;20194;-61
2024/02/16 11:34:50;;;;;;;19.43;12.63;;;12.50;99.90;;;;;;4997709;28;20202;-61
2024/02/16 11:37:19;;;;;;;17.67;11.77;;;12.60;99.90;;;;;;5001357;28;20222;-61
2024/02/16 11:39:47;;;;;;;20.23;12.03;;;12.60;99.90;;;;;;5000536;28;20322;-61
2024/02/16 11:42:20;;;;;;;17.40;12.00;;;12.70;99.90;;;;;;4998242;28;20226;-61
2024/02/16 11:44:52;;;;;;;19.47;12.77;;;12.70;99.90;;;;;;4997237;28;20229;-61
2024/02/16 11:47:25;;;;;;;17.67;12.87;;;12.70;99.90;;;;;;5001033;28;20211;-61
2024/02/16 11:50:05;;;;;;;22.60;12.43;;;12.70;99.90;;;;;;4997927;28;20213;-61
2024/02/16 11:52:35;;;;;;;18.53;12.93;;;12.70;99.90;;;;;;4999839;28;20230;-61
2024/02/16 11:55:03;;;;;;;18.67;12.83;;;12.70;99.90;;;;;;4999076;28;20234;-61
2024/02/16 11:57:33;;;;;;;17.10;11.73;;;12.70;99.90;;;;;;5000842;28;20226;-61
2024/02/16 12:00:04;;;;;;;17.13;12.27;;;12.70;99.90;;;;;;4998344;28;20571;-60
2024/02/16 12:02:33;;;;;;;16.13;11.33;;;12.60;99.90;;;;;;4999466;28;20541;-60
2024/02/16 12:05:02;;;;;;;15.00;11.50;;;12.60;99.90;;;;;;4999677;28;20254;-60
2024/02/16 12:07:33;;;;;;;15.23;10.80;;;12.60;99.90;;;;;;4999334;28;20226;-60
2024/02/16 12:10:05;;;;;;;13.67;10.20;;;12.50;99.90;;;;;;4999415;28;20255;-60
2024/02/16 12:12:35;;;;;;;14.63;10.37;;;12.50;99.90;;;;;;4997703;28;20542;-60
2024/02/16 12:15:07;;;;;;;15.33;11.87;;;12.50;99.90;;;;;;4997345;28;20597;-60
2024/02/16 12:17:36;;;;;;;13.67;10.67;;;12.40;99.90;;;;;;5001006;28;20773;-61
2024/02/16 12:20:13;;;;;;;15.77;11.50;;;12.40;99.90;;;;;;5001395;28;20202;-60
2024/02/16 12:22:43;;;;;;;18.83;11.10;;;12.40;99.90;;;;;;4998723;28;20225;-61
2024/02/16 12:25:12;;;;;;;17.57;11.57;;;12.50;99.90;;;;;;5010175;28;20226;-61
2024/02/16 12:27:40;;;;;;;14.40;9.80;;;12.60;99.90;;;;;;4996463;28;20238;-61
2024/02/16 12:30:10;;;;;;;13.50;9.13;;;12.70;99.90;;;;;;4998555;28;20239;-61
2024/02/16 12:32:38;;;;;;;10.73;8.73;;;12.80;99.90;;;;;;4996787;28;20254;-60
2024/02/16 12:35:07;;;;;;;11.80;8.20;;;13.00;99.90;;;;;;4998041;28;20641;-61
2024/02/16 12:37:37;;;;;;;8.47;7.67;;;13.10;99.90;;;;;;4999696;28;20214;-61
2024/02/16 12:40:10;;;;;;;13.60;8.30;;;13.10;99.90;;;;;;4997769;28;20213;-61
2024/02/16 12:42:40;;;;;;;12.77;9.23;;;13.10;99.90;;;;;;5000169;28;20222;-61
2024/02/16 12:45:11;;;;;;;9.00;7.97;;;13.10;99.90;;;;;;5001818;28;20227;-61
2024/02/16 12:47:39;;;;;;;9.87;6.53;;;13.20;99.90;;;;;;4998359;28;20235;-61
2024/02/16 12:50:08;;;;;;;7.50;6.80;;;13.30;99.90;;;;;;4997926;28;20875;-61
2024/02/16 12:52:38;;;;;;;7.00;6.13;;;13.30;99.90;;;;;;4994411;28;20219;-61